createdAt,value
2022-09-28T06:58:48.550Z,13.90
2022-09-28T07:09:32.812Z,16.90
2022-09-28T07:12:19.654Z,16.30
2022-09-28T07:14:56.256Z,17.00
2022-09-28T07:17:24.408Z,17.50
2022-09-28T07:19:52.811Z,18.30
2022-09-28T07:22:30.174Z,18.70
2022-09-28T07:25:06.053Z,19.70
2022-09-28T07:28:05.368Z,19.80
2022-09-28T07:36:17.951Z,19.40
2022-09-28T07:38:45.345Z,19.00
2022-09-28T07:41:12.365Z,18.70
2022-09-28T07:43:48.451Z,18.40
2022-09-28T07:46:16.953Z,18.60
2022-09-28T07:48:58.518Z,18.60
2022-09-28T07:51:52.899Z,19.10
2022-09-28T07:57:30.114Z,21.40
2022-09-28T08:02:44.071Z,19.40
2022-09-28T08:05:13.571Z,18.20
2022-09-28T08:07:40.919Z,17.70
2022-09-28T08:10:09.591Z,17.50
2022-09-28T08:13:02.848Z,17.50
2022-09-28T08:15:51.225Z,17.10
2022-09-28T08:21:19.553Z,16.50
2022-09-28T08:23:46.728Z,16.70
2022-09-28T08:26:15.796Z,16.70
2022-09-28T08:28:45.249Z,16.70
2022-09-28T08:31:31.277Z,16.70
2022-09-28T08:34:17.084Z,16.70
2022-09-28T08:37:03.104Z,16.90
2022-09-28T08:39:50.500Z,17.40
2022-09-28T08:42:45.927Z,17.80
2022-09-28T08:45:33.773Z,17.70
2022-09-28T08:48:21.875Z,18.10
2022-09-28T08:51:16.245Z,18.20
2022-09-28T08:53:58.050Z,18.60
2022-09-28T08:56:35.590Z,19.20
2022-09-28T08:59:04.510Z,18.90
2022-09-28T09:01:36.033Z,18.80
2022-09-28T09:04:07.229Z,19.30
2022-09-28T09:07:25.573Z,19.60
2022-09-28T09:10:08.528Z,19.40
2022-09-28T09:12:38.635Z,19.50
2022-09-28T09:15:18.212Z,19.40
2022-09-28T09:18:03.954Z,19.40
2022-09-28T09:20:39.721Z,19.20
2022-09-28T09:23:38.577Z,20.20
2022-09-28T09:26:18.376Z,21.40
2022-09-28T09:28:50.315Z,21.40
2022-09-28T09:31:27.786Z,20.60
2022-09-28T09:34:04.939Z,20.50
2022-09-28T09:37:01.341Z,20.90
2022-09-28T09:39:59.349Z,21.30
2022-09-28T09:42:44.789Z,21.40
2022-09-28T09:45:45.674Z,20.70
2022-09-28T09:48:36.065Z,20.80
2022-09-28T09:51:05.760Z,21.60
2022-09-28T09:53:43.881Z,21.80
2022-09-28T09:56:16.776Z,21.70
2022-09-28T09:59:01.732Z,21.30
2022-09-28T10:01:40.058Z,21.10
2022-09-28T10:04:21.311Z,21.00
2022-09-28T10:09:25.057Z,20.70
2022-09-28T10:11:54.126Z,20.70
2022-09-28T10:14:23.238Z,20.80
2022-09-28T10:17:02.600Z,21.50
2022-09-28T10:19:48.301Z,22.10
2022-09-28T10:22:34.405Z,22.50
2022-09-28T10:25:10.845Z,23.70
2022-09-28T10:27:40.726Z,23.70
2022-09-28T10:35:22.175Z,20.60
2022-09-28T10:37:57.428Z,20.20
2022-09-28T10:41:01.137Z,18.90
2022-09-28T10:44:06.260Z,17.90
2022-09-28T10:46:45.782Z,18.20
2022-09-28T10:49:16.838Z,19.70
2022-09-28T10:51:51.794Z,20.20
2022-09-28T10:54:26.861Z,19.40
2022-09-28T10:56:55.037Z,18.60
2022-09-28T10:59:37.528Z,18.40
2022-09-28T11:02:33.484Z,18.00
2022-09-28T11:05:20.154Z,17.40
2022-09-28T11:07:48.202Z,17.10
2022-09-28T11:10:32.928Z,16.90
2022-09-28T11:13:13.065Z,16.40
2022-09-28T11:15:44.347Z,16.20
2022-09-28T11:18:19.881Z,16.20
2022-09-28T11:20:47.002Z,15.90
2022-09-28T11:23:14.850Z,15.80
2022-09-28T11:25:42.469Z,15.80
2022-09-28T11:28:18.503Z,15.80
2022-09-28T11:30:48.653Z,15.80
2022-09-28T11:33:40.437Z,16.40
2022-09-28T11:36:43.225Z,16.90
2022-09-28T11:39:13.760Z,17.10
2022-09-28T11:42:11.004Z,17.70
2022-09-28T11:44:48.195Z,18.60
2022-09-28T11:47:51.764Z,19.30
2022-09-28T11:50:35.356Z,20.00
2022-09-28T11:53:23.448Z,19.70
2022-09-28T11:56:14.005Z,19.60
2022-09-28T11:58:44.460Z,20.00
2022-09-28T12:01:27.485Z,20.00
2022-09-28T12:04:13.304Z,19.40
2022-09-28T12:06:51.980Z,19.10
2022-09-28T12:09:32.401Z,18.60
